Time;durP1;ratioP1;P1;durP2;ratioP2;P2;SDS_P1;SDS_P2;PMS_P1;PMS_P2;Temp;Humidity;BMP_temperature;BMP_pressure;BME280_temperature;BME280_humidity;BME280_pressure;Samples;Min_cycle;Max_cycle;Signal;HPM_P1;HPM_P2
2023/08/04 00:00:47;;;;;;;9.13;4.80;;;16.60;99.90;;;;;;5014036;28;20212;-72
2023/08/04 00:03:15;;;;;;;8.07;4.23;;;16.70;99.90;;;;;;5018496;28;20557;-72
2023/08/04 00:05:42;;;;;;;17.33;5.20;;;16.60;99.90;;;;;;5014760;28;20484;-72
2023/08/04 00:08:09;;;;;;;7.10;4.00;;;16.70;99.90;;;;;;5008493;28;20451;-72
2023/08/04 00:10:36;;;;;;;6.37;3.70;;;16.80;99.90;;;;;;5020108;28;20462;-72
2023/08/04 00:13:02;;;;;;;10.13;4.50;;;16.70;99.90;;;;;;5018097;28;20546;-72
2023/08/04 00:15:30;;;;;;;6.37;4.13;;;16.80;99.90;;;;;;5025176;28;20462;-72
2023/08/04 00:17:57;;;;;;;8.47;4.50;;;16.90;99.90;;;;;;5024908;28;20507;-72
2023/08/04 00:20:25;;;;;;;13.90;5.67;;;16.90;99.90;;;;;;5019514;28;20438;-71
2023/08/04 00:22:52;;;;;;;8.27;3.30;;;16.90;99.90;;;;;;5021849;28;20521;-73
2023/08/04 00:25:19;;;;;;;7.20;4.40;;;16.90;99.90;;;;;;5025626;28;20826;-73
2023/08/04 00:27:46;;;;;;;9.13;5.10;;;16.90;99.90;;;;;;5013946;28;20456;-72
2023/08/04 00:30:13;;;;;;;20.43;4.33;;;16.90;99.90;;;;;;5017462;28;20655;-72
2023/08/04 00:32:40;;;;;;;9.23;3.53;;;16.90;99.90;;;;;;5015322;28;20491;-72
2023/08/04 00:35:07;;;;;;;10.37;5.40;;;16.90;99.90;;;;;;5027332;28;20451;-73
2023/08/04 00:37:35;;;;;;;11.10;4.67;;;16.90;99.90;;;;;;5021273;28;20490;-72
2023/08/04 00:40:04;;;;;;;5.15;2.80;;;16.80;99.90;;;;;;5021403;28;20567;-73
2023/08/04 00:42:30;;;;;;;7.73;3.07;;;16.90;99.90;;;;;;5017653;28;20290;-70
2023/08/04 00:44:57;;;;;;;6.03;3.83;;;16.90;99.90;;;;;;5058197;23;20580;-77
2023/08/04 00:47:25;;;;;;;7.23;3.47;;;17.00;99.90;;;;;;5040184;28;20443;-77
2023/08/04 00:49:53;;;;;;;8.27;3.30;;;17.00;99.90;;;;;;5054091;28;20458;-77
2023/08/04 00:52:20;;;;;;;7.13;3.90;;;17.00;99.90;;;;;;5057063;28;20537;-77
2023/08/04 00:54:48;;;;;;;5.40;3.37;;;17.00;99.90;;;;;;5057400;28;20442;-78
2023/08/04 00:57:15;;;;;;;7.50;4.20;;;17.00;99.90;;;;;;5054684;28;20449;-75
2023/08/04 00:59:43;;;;;;;7.27;3.30;;;17.00;99.90;;;;;;5057410;28;20545;-78
2023/08/04 01:02:10;;;;;;;8.87;3.93;;;17.00;99.90;;;;;;5057531;28;20442;-78
2023/08/04 01:04:37;;;;;;;10.70;4.17;;;17.00;99.90;;;;;;5056712;28;20489;-77
2023/08/04 01:07:16;;;;;;;7.93;3.60;;;17.00;99.90;;;;;;5056243;28;20445;-77
2023/08/04 01:09:50;;;;;;;7.50;4.60;;;17.00;99.90;;;;;;5049972;28;20891;-77
2023/08/04 01:12:23;;;;;;;11.27;4.90;;;16.90;99.90;;;;;;5049216;28;20457;-77
2023/08/04 01:14:53;;;;;;;7.20;4.00;;;16.80;99.90;;;;;;5051936;28;20540;-77
2023/08/04 01:17:23;;;;;;;8.67;4.00;;;16.70;99.90;;;;;;5057872;28;20536;-78
2023/08/04 01:19:50;;;;;;;8.53;4.40;;;16.70;99.90;;;;;;5058025;28;20541;-78
2023/08/04 01:22:18;;;;;;;9.93;4.87;;;16.70;99.90;;;;;;5055677;28;20487;-77
2023/08/04 01:24:45;;;;;;;7.47;3.63;;;16.70;99.90;;;;;;5056090;28;20495;-78
2023/08/04 01:27:14;;;;;;;5.37;3.80;;;16.80;99.90;;;;;;5056855;28;20532;-78
2023/08/04 01:29:44;;;;;;;9.93;4.00;;;16.70;99.90;;;;;;5056687;28;20458;-78
2023/08/04 01:32:11;;;;;;;9.77;4.90;;;16.70;99.90;;;;;;5049473;28;20437;-78
2023/08/04 01:34:41;;;;;;;6.60;4.50;;;16.70;99.90;;;;;;5056721;28;20941;-78
2023/08/04 01:37:08;;;;;;;11.50;5.20;;;16.70;99.90;;;;;;5056410;28;20544;-78
2023/08/04 01:39:37;;;;;;;6.80;4.20;;;16.80;99.90;;;;;;5057486;28;20631;-78
2023/08/04 01:42:05;;;;;;;6.03;4.00;;;16.80;99.90;;;;;;5055684;28;20458;-78
2023/08/04 01:44:32;;;;;;;11.40;4.80;;;16.70;99.90;;;;;;5056701;28;20498;-77
2023/08/04 01:46:58;;;;;;;8.93;4.75;;;16.70;99.90;;;;;;5056359;28;20441;-78
2023/08/04 01:49:25;;;;;;;10.02;4.05;;;16.60;99.90;;;;;;5053386;28;20223;-77
2023/08/04 01:51:52;;;;;;;13.80;6.10;;;16.60;99.90;;;;;;5056979;28;20660;-77
2023/08/04 01:54:19;;;;;;;10.97;5.90;;;16.60;99.90;;;;;;5058939;28;20270;-77
2023/08/04 01:56:47;;;;;;;9.32;5.40;;;16.60;99.90;;;;;;5056874;28;20956;-77
2023/08/04 01:59:14;;;;;;;12.35;5.18;;;16.60;99.90;;;;;;5054223;28;20231;-78
2023/08/04 02:01:41;;;;;;;9.13;4.80;;;16.50;99.90;;;;;;5062463;28;20266;-77
2023/08/04 02:04:08;;;;;;;9.00;4.30;;;16.50;99.90;;;;;;5073332;28;20222;-77
2023/08/04 02:06:35;;;;;;;11.80;5.37;;;16.50;99.90;;;;;;5073992;28;20455;-76
2023/08/04 02:09:03;;;;;;;11.60;5.47;;;16.40;99.90;;;;;;5072219;28;20569;-76
2023/08/04 02:11:30;;;;;;;11.03;6.03;;;16.40;99.90;;;;;;5059876;28;20463;-77
2023/08/04 02:13:58;;;;;;;8.00;5.40;;;16.40;99.90;;;;;;5060244;28;20441;-77
2023/08/04 02:16:25;;;;;;;9.57;5.28;;;16.50;99.90;;;;;;5060022;28;20447;-78
2023/08/04 02:19:03;;;;;;;13.13;4.73;;;16.50;99.90;;;;;;5062117;28;20239;-77
2023/08/04 02:21:30;;;;;;;8.38;4.50;;;16.50;99.90;;;;;;5058638;28;20532;-78
2023/08/04 02:23:57;;;;;;;11.50;6.13;;;16.50;99.90;;;;;;5058600;28;20634;-78
2023/08/04 02:26:24;;;;;;;7.97;5.43;;;16.50;99.90;;;;;;5056841;28;20492;-78
2023/08/04 02:28:53;;;;;;;15.80;6.80;;;16.70;99.90;;;;;;5053002;28;20504;-77
2023/08/04 02:31:22;;;;;;;8.93;4.20;;;16.60;99.90;;;;;;5054941;28;20834;-77
2023/08/04 02:33:49;;;;;;;8.20;4.80;;;16.60;99.90;;;;;;5055421;28;20205;-77
2023/08/04 02:36:15;;;;;;;12.75;5.47;;;16.60;99.90;;;;;;5054924;28;20742;-78
2023/08/04 02:38:42;;;;;;;12.38;5.70;;;16.60;99.90;;;;;;5053645;28;20487;-77
2023/08/04 02:41:10;;;;;;;12.57;5.03;;;16.50;99.90;;;;;;5054375;28;20661;-77
2023/08/04 02:43:37;;;;;;;14.95;5.63;;;16.50;99.90;;;;;;5057644;28;20454;-78
2023/08/04 02:46:04;;;;;;;9.40;4.93;;;16.40;99.90;;;;;;5060659;28;20223;-78
2023/08/04 02:48:32;;;;;;;13.03;5.90;;;16.50;99.90;;;;;;5060846;28;20320;-76
2023/08/04 02:51:05;;;;;;;18.03;6.77;;;16.40;99.90;;;;;;5060674;28;20960;-77
2023/08/04 02:53:32;;;;;;;11.13;5.90;;;16.50;99.90;;;;;;5059892;28;20513;-77
2023/08/04 02:55:59;;;;;;;8.20;4.90;;;16.50;99.90;;;;;;5060142;28;20462;-77
2023/08/04 02:58:27;;;;;;;11.53;5.87;;;16.50;99.90;;;;;;5058760;28;21003;-77
2023/08/04 03:00:54;;;;;;;9.30;5.27;;;16.50;99.90;;;;;;5058358;28;20441;-77
2023/08/04 03:03:21;;;;;;;11.38;5.53;;;16.50;99.90;;;;;;5058066;28;20552;-77
2023/08/04 03:05:49;;;;;;;5.73;4.33;;;16.50;99.90;;;;;;5056659;28;20227;-77
2023/08/04 03:08:16;;;;;;;6.00;4.20;;;16.50;99.90;;;;;;5058293;28;20471;-77
2023/08/04 03:10:43;;;;;;;12.32;5.07;;;16.50;99.90;;;;;;5058965;28;20459;-77
2023/08/04 03:13:10;;;;;;;10.60;4.27;;;16.50;99.90;;;;;;5055056;28;20570;-77
2023/08/04 03:15:37;;;;;;;7.67;4.37;;;16.60;99.90;;;;;;5055599;28;20506;-77
2023/08/04 03:18:04;;;;;;;8.33;4.30;;;16.60;99.90;;;;;;5058277;28;20473;-77
2023/08/04 03:20:37;;;;;;;9.40;4.37;;;16.60;99.90;;;;;;5056753;28;20828;-78
2023/08/04 03:23:06;;;;;;;6.10;3.60;;;16.80;99.90;;;;;;5056790;28;20460;-78
2023/08/04 03:25:36;;;;;;;14.88;5.07;;;16.80;99.90;;;;;;5049947;28;20495;-78
2023/08/04 03:28:03;;;;;;;14.00;4.40;;;16.80;99.90;;;;;;5055788;28;20548;-78
2023/08/04 03:30:30;;;;;;;7.83;4.40;;;16.80;99.90;;;;;;5054621;28;20437;-77
2023/08/04 03:32:57;;;;;;;11.37;4.40;;;16.80;99.90;;;;;;5055177;28;20451;-78
2023/08/04 03:35:30;;;;;;;12.20;4.77;;;16.90;99.90;;;;;;5050460;28;20946;-78
2023/08/04 03:37:59;;;;;;;11.37;4.57;;;16.90;99.90;;;;;;5056192;28;20445;-77
2023/08/04 03:40:27;;;;;;;7.80;4.10;;;16.90;99.90;;;;;;5061278;28;20472;-78
2023/08/04 03:42:55;;;;;;;9.20;4.73;;;16.80;99.90;;;;;;5055214;28;20452;-77
2023/08/04 03:45:22;;;;;;;7.78;3.75;;;16.90;99.90;;;;;;5059259;28;20583;-79
2023/08/04 03:47:48;;;;;;;14.00;4.33;;;16.90;99.90;;;;;;5058973;28;20283;-77
2023/08/04 03:50:16;;;;;;;11.33;3.80;;;16.80;99.90;;;;;;5060943;28;20561;-78
2023/08/04 03:52:44;;;;;;;13.50;4.13;;;16.70;99.90;;;;;;5055534;28;20870;-76
2023/08/04 03:55:13;;;;;;;6.50;3.60;;;16.70;99.90;;;;;;5058211;28;20528;-77
2023/08/04 03:57:41;;;;;;;10.37;4.07;;;16.70;99.90;;;;;;5059170;28;20445;-78
2023/08/04 04:00:09;;;;;;;10.33;3.90;;;16.60;99.90;;;;;;5058380;28;20473;-77
2023/08/04 04:02:36;;;;;;;11.70;4.90;;;16.70;99.90;;;;;;5049004;28;20448;-78
2023/08/04 04:05:03;;;;;;;9.37;4.30;;;16.70;99.90;;;;;;5058918;28;20603;-78
2023/08/04 04:07:30;;;;;;;11.50;4.57;;;16.70;99.90;;;;;;5057508;28;20521;-77
2023/08/04 04:09:57;;;;;;;11.43;4.50;;;16.90;99.90;;;;;;5052064;28;20504;-78
2023/08/04 04:12:24;;;;;;;7.20;3.57;;;16.80;99.90;;;;;;5057673;28;20492;-78
2023/08/04 04:14:53;;;;;;;10.27;4.07;;;16.70;99.90;;;;;;5061049;28;20464;-77
2023/08/04 04:17:20;;;;;;;7.20;3.63;;;16.70;99.90;;;;;;5074685;28;20437;-77
2023/08/04 04:19:46;;;;;;;8.30;4.20;;;16.70;99.90;;;;;;5073666;28;20461;-77
2023/08/04 04:22:16;;;;;;;9.50;4.50;;;16.70;99.90;;;;;;5062117;28;20435;-77
2023/08/04 04:24:43;;;;;;;13.33;4.13;;;16.70;99.90;;;;;;5053388;28;20445;-78
2023/08/04 04:27:11;;;;;;;11.33;4.43;;;16.70;99.90;;;;;;5057310;28;20495;-78
2023/08/04 04:29:38;;;;;;;4.80;3.57;;;16.80;99.90;;;;;;5055771;28;20484;-77
2023/08/04 04:32:10;;;;;;;7.50;3.43;;;16.80;99.90;;;;;;5050897;28;20466;-78
2023/08/04 04:34:39;;;;;;;11.82;4.00;;;16.80;99.90;;;;;;5045468;28;20449;-78
2023/08/04 04:37:06;;;;;;;14.55;5.18;;;16.80;99.90;;;;;;5051970;28;20201;-78
2023/08/04 04:39:33;;;;;;;7.53;4.93;;;16.80;99.90;;;;;;5056853;28;20434;-77
2023/08/04 04:42:03;;;;;;;8.00;4.00;;;16.70;99.90;;;;;;5047485;28;20458;-78
2023/08/04 04:44:31;;;;;;;9.40;4.20;;;16.80;99.90;;;;;;5060184;28;20493;-78
2023/08/04 04:46:58;;;;;;;12.90;4.77;;;16.80;99.90;;;;;;5060074;28;20484;-78
2023/08/04 04:49:37;;;;;;;9.40;4.60;;;16.90;99.90;;;;;;5058183;28;20563;-77
2023/08/04 04:52:05;;;;;;;9.53;4.10;;;16.90;99.90;;;;;;5058238;28;20520;-78
2023/08/04 04:54:32;;;;;;;9.53;5.50;;;16.80;99.90;;;;;;5059301;28;20454;-79
2023/08/04 04:56:59;;;;;;;8.97;4.50;;;16.80;99.90;;;;;;5055932;28;20456;-78
2023/08/04 04:59:26;;;;;;;10.03;4.10;;;16.80;99.90;;;;;;5059633;28;20988;-79
2023/08/04 05:01:53;;;;;;;7.90;4.50;;;16.70;99.90;;;;;;5062510;28;20445;-79
2023/08/04 05:04:20;;;;;;;8.37;4.53;;;16.70;99.90;;;;;;5065546;28;20448;-84
2023/08/04 05:06:48;;;;;;;9.70;4.90;;;16.70;99.90;;;;;;5056611;28;20532;-78
2023/08/04 05:09:15;;;;;;;10.03;4.80;;;16.80;99.90;;;;;;5059370;28;20553;-81
2023/08/04 05:11:45;;;;;;;8.23;4.03;;;16.90;99.90;;;;;;5062125;28;20457;-78
2023/08/04 05:14:12;;;;;;;9.20;4.10;;;16.80;99.90;;;;;;5063990;28;20484;-79
2023/08/04 05:16:40;;;;;;;11.00;4.73;;;16.90;99.90;;;;;;5060225;28;20533;-77
2023/08/04 05:19:08;;;;;;;8.70;4.07;;;16.90;99.90;;;;;;5058255;28;20485;-77
2023/08/04 05:21:35;;;;;;;7.80;3.93;;;17.00;99.90;;;;;;5056011;28;20437;-77
2023/08/04 05:24:03;;;;;;;9.27;4.40;;;16.90;99.90;;;;;;5058091;28;20456;-77
2023/08/04 05:26:30;;;;;;;9.13;4.50;;;16.90;99.90;;;;;;5058362;28;20569;-77
2023/08/04 05:28:57;;;;;;;7.93;3.80;;;17.00;99.90;;;;;;5054759;28;20524;-78
2023/08/04 05:31:26;;;;;;;8.60;4.40;;;17.00;99.90;;;;;;5048002;28;20457;-77
2023/08/04 05:33:54;;;;;;;5.27;4.20;;;17.10;99.90;;;;;;5051774;28;20438;-78
2023/08/04 05:36:21;;;;;;;7.70;4.87;;;17.20;99.90;;;;;;5050901;28;20943;-77
2023/08/04 05:38:48;;;;;;;20.83;4.47;;;17.30;99.90;;;;;;5058008;28;20462;-77
2023/08/04 05:41:17;;;;;;;6.73;3.80;;;17.30;99.90;;;;;;5048440;28;20435;-78
2023/08/04 05:43:43;;;;;;;5.07;4.53;;;17.40;99.90;;;;;;5051072;28;20454;-78
2023/08/04 05:46:12;;;;;;;10.20;3.70;;;17.40;99.90;;;;;;5057615;28;20478;-78
2023/08/04 05:48:39;;;;;;;5.57;2.80;;;17.60;99.90;;;;;;5049739;28;20525;-77
2023/08/04 05:51:07;;;;;;;6.37;3.73;;;17.70;99.90;;;;;;5054850;28;20833;-77
2023/08/04 05:53:34;;;;;;;9.07;3.00;;;17.80;99.90;;;;;;5052570;28;20578;-77
2023/08/04 05:56:00;;;;;;;7.70;3.37;;;17.80;99.90;;;;;;5057267;28;20506;-77
2023/08/04 05:58:29;;;;;;;5.00;2.80;;;17.90;99.90;;;;;;5056665;28;20483;-76
2023/08/04 06:00:55;;;;;;;10.53;3.20;;;17.90;99.90;;;;;;5056584;28;20560;-79
2023/08/04 06:03:22;;;;;;;9.03;3.63;;;18.00;99.90;;;;;;5058853;28;20446;-78
2023/08/04 06:05:49;;;;;;;12.93;4.30;;;18.10;99.90;;;;;;5059260;28;20488;-78
2023/08/04 06:08:16;;;;;;;4.37;2.90;;;18.10;99.90;;;;;;5058390;28;20519;-78
2023/08/04 06:10:43;;;;;;;6.90;3.07;;;18.20;99.90;;;;;;5056535;28;20452;-78
2023/08/04 06:13:10;;;;;;;7.10;2.53;;;18.30;99.90;;;;;;5058055;28;20480;-77
2023/08/04 06:15:38;;;;;;;3.30;2.30;;;18.20;99.90;;;;;;5076332;28;20446;-76
2023/08/04 06:18:05;;;;;;;5.47;2.90;;;18.20;99.90;;;;;;5066879;22;20499;-71
2023/08/04 06:20:32;;;;;;;8.47;3.67;;;18.00;99.90;;;;;;5011652;28;20472;-69
2023/08/04 06:23:00;;;;;;;6.70;3.10;;;18.20;99.90;;;;;;5011319;28;20498;-69
2023/08/04 06:25:27;;;;;;;6.23;2.57;;;18.30;99.90;;;;;;5012085;28;20519;-70
2023/08/04 06:27:54;;;;;;;7.03;4.57;;;18.40;99.90;;;;;;5000360;28;20782;-69
2023/08/04 06:30:21;;;;;;;6.23;2.53;;;18.60;99.90;;;;;;5010378;28;20436;-70
2023/08/04 06:32:50;;;;;;;7.90;2.63;;;18.70;99.90;;;;;;5003514;28;20473;-68
2023/08/04 06:35:17;;;;;;;5.77;2.93;;;18.70;99.90;;;;;;4999921;28;20492;-73
2023/08/04 06:37:44;;;;;;;7.50;3.00;;;18.60;99.90;;;;;;5006691;28;20450;-70
2023/08/04 06:40:12;;;;;;;5.13;3.57;;;18.50;99.90;;;;;;4997161;28;20524;-70
2023/08/04 06:42:39;;;;;;;5.80;2.37;;;18.50;99.90;;;;;;5011779;28;20535;-72
2023/08/04 06:45:07;;;;;;;6.73;3.60;;;18.60;99.90;;;;;;5014178;28;20448;-73
2023/08/04 06:47:34;;;;;;;10.90;3.30;;;18.60;99.90;;;;;;5002036;28;20558;-71
2023/08/04 06:50:04;;;;;;;8.03;3.30;;;18.70;99.90;;;;;;5004487;28;20532;-70
2023/08/04 06:52:32;;;;;;;9.40;3.67;;;18.80;99.90;;;;;;5004643;28;20453;-73
2023/08/04 06:54:58;;;;;;;4.93;2.90;;;19.10;99.90;;;;;;5005757;28;20450;-72
2023/08/04 06:57:25;;;;;;;11.63;2.93;;;19.20;99.90;;;;;;5004906;28;20445;-73
2023/08/04 06:59:52;;;;;;;7.27;3.10;;;19.40;99.90;;;;;;5001578;28;20523;-78
2023/08/04 07:02:19;;;;;;;8.63;3.13;;;19.50;99.90;;;;;;5007763;28;20526;-77
2023/08/04 07:04:46;;;;;;;4.67;2.90;;;19.60;99.90;;;;;;5014892;28;20519;-76
2023/08/04 07:07:14;;;;;;;7.70;2.77;;;19.90;99.90;;;;;;5009306;28;20633;-77
2023/08/04 07:09:41;;;;;;;9.33;2.33;;;20.40;99.90;;;;;;5005687;28;20970;-76
2023/08/04 07:12:09;;;;;;;6.60;2.30;;;20.90;99.90;;;;;;5000840;28;20547;-76
2023/08/04 07:14:36;;;;;;;5.50;2.27;;;21.30;99.90;;;;;;5009609;28;20500;-76
2023/08/04 07:17:03;;;;;;;5.80;2.73;;;21.60;99.90;;;;;;5003781;28;20479;-76
2023/08/04 07:19:30;;;;;;;5.40;2.87;;;21.70;99.90;;;;;;4997551;28;20552;-76
2023/08/04 07:21:57;;;;;;;4.90;2.20;;;21.60;99.90;;;;;;5006754;28;20531;-76
2023/08/04 07:24:26;;;;;;;8.40;3.30;;;21.50;99.90;;;;;;5005051;28;20476;-76
2023/08/04 07:26:53;;;;;;;5.27;1.93;;;21.50;99.90;;;;;;5004368;28;20582;-76
2023/08/04 07:29:19;;;;;;;5.33;2.60;;;21.30;99.90;;;;;;5004280;28;20528;-76
2023/08/04 07:31:46;;;;;;;2.43;2.20;;;21.10;99.90;;;;;;5010390;28;20821;-76
2023/08/04 07:34:13;;;;;;;3.40;1.80;;;21.00;99.90;;;;;;5001838;28;20547;-76
2023/08/04 07:36:40;;;;;;;3.07;1.80;;;20.90;99.90;;;;;;5001424;28;20481;-77
2023/08/04 07:39:07;;;;;;;7.73;2.80;;;21.00;99.90;;;;;;5004909;28;20445;-77
2023/08/04 07:41:35;;;;;;;3.73;1.90;;;21.00;99.90;;;;;;5006076;28;20874;-77
2023/08/04 07:44:02;;;;;;;5.30;1.53;;;21.10;99.90;;;;;;5002888;28;20503;-77
2023/08/04 07:46:31;;;;;;;8.03;2.30;;;21.10;99.90;;;;;;5001532;28;20560;-76
2023/08/04 07:48:58;;;;;;;8.20;2.13;;;21.20;99.90;;;;;;5002976;28;20484;-77
2023/08/04 07:51:25;;;;;;;3.70;1.33;;;21.30;99.90;;;;;;5000876;28;20444;-77
2023/08/04 07:53:52;;;;;;;8.43;1.60;;;21.40;99.90;;;;;;5007093;28;20544;-77
2023/08/04 07:56:20;;;;;;;2.77;1.20;;;21.60;99.90;;;;;;5009925;28;20910;-77
2023/08/04 07:58:49;;;;;;;1.73;1.40;;;21.80;99.90;;;;;;5002498;28;20445;-77
2023/08/04 08:01:16;;;;;;;2.33;1.13;;;22.00;99.90;;;;;;5007945;28;20448;-75
2023/08/04 08:03:43;;;;;;;2.70;0.93;;;22.90;99.90;;;;;;5006023;28;20464;-76
2023/08/04 08:06:10;;;;;;;4.33;1.50;;;23.90;99.90;;;;;;5001995;28;20440;-76
2023/08/04 08:08:37;;;;;;;2.17;1.17;;;24.40;99.90;;;;;;4999487;28;20543;-77
2023/08/04 08:11:09;;;;;;;1.93;1.40;;;25.70;99.90;;;;;;5008973;28;20563;-77
2023/08/04 08:13:36;;;;;;;2.20;1.00;;;26.70;97.50;;;;;;4997646;28;20547;-77
2023/08/04 08:16:09;;;;;;;2.23;1.00;;;27.50;96.10;;;;;;4998575;28;20543;-76
2023/08/04 08:18:36;;;;;;;4.93;1.60;;;27.90;94.10;;;;;;4997848;28;20449;-76
2023/08/04 08:21:07;;;;;;;1.80;1.37;;;27.70;93.50;;;;;;4997528;28;20444;-76
2023/08/04 08:23:34;;;;;;;5.57;1.50;;;27.50;93.90;;;;;;5008405;28;20468;-76
2023/08/04 08:26:01;;;;;;;4.13;1.70;;;27.70;94.00;;;;;;5009916;28;20527;-76
2023/08/04 08:28:28;;;;;;;3.17;1.17;;;28.20;93.40;;;;;;4997433;28;20448;-78
2023/08/04 08:30:55;;;;;;;3.87;1.90;;;28.50;92.70;;;;;;5006984;28;20540;-76
2023/08/04 08:33:23;;;;;;;2.80;1.67;;;27.80;93.10;;;;;;5008289;28;20542;-77
2023/08/04 08:35:51;;;;;;;2.40;1.27;;;26.90;93.30;;;;;;4999211;28;20444;-77
2023/08/04 08:38:18;;;;;;;4.73;2.40;;;26.00;95.80;;;;;;5000558;28;20445;-77
2023/08/04 08:40:47;;;;;;;5.07;2.10;;;25.70;96.20;;;;;;5008038;28;20531;-76
2023/08/04 08:43:14;;;;;;;7.23;2.10;;;25.40;97.10;;;;;;4995046;28;20476;-77
2023/08/04 08:45:43;;;;;;;4.47;1.40;;;25.10;97.80;;;;;;5003568;28;20444;-76
2023/08/04 08:48:11;;;;;;;2.60;1.50;;;24.80;98.50;;;;;;4998199;28;20571;-76
2023/08/04 08:50:40;;;;;;;5.37;1.87;;;24.60;99.90;;;;;;4996064;28;20453;-76
2023/08/04 08:53:12;;;;;;;3.97;1.50;;;24.50;99.80;;;;;;5007141;28;20464;-77
2023/08/04 08:55:40;;;;;;;1.80;1.20;;;24.50;99.90;;;;;;5010027;28;20471;-76
2023/08/04 08:58:08;;;;;;;2.17;1.20;;;24.60;99.90;;;;;;5000839;28;20510;-76
2023/08/04 09:00:35;;;;;;;3.23;1.73;;;24.80;99.80;;;;;;5008437;28;20833;-77
2023/08/04 09:03:04;;;;;;;2.90;1.23;;;25.00;98.60;;;;;;5002131;28;20488;-76
2023/08/04 09:05:32;;;;;;;4.80;1.63;;;25.10;98.30;;;;;;5007290;28;20511;-76
2023/08/04 09:08:00;;;;;;;3.40;1.83;;;24.90;97.60;;;;;;4998060;28;20855;-76
2023/08/04 09:10:27;;;;;;;3.20;1.23;;;24.60;98.20;;;;;;5004191;28;20444;-76
2023/08/04 09:12:56;;;;;;;4.97;1.87;;;24.70;98.40;;;;;;5011196;28;20559;-76
2023/08/04 09:15:33;;;;;;;9.40;1.90;;;25.10;97.90;;;;;;4999577;28;20456;-76
2023/08/04 09:18:00;;;;;;;1.97;1.00;;;25.40;97.70;;;;;;5004496;28;20455;-76
2023/08/04 09:20:29;;;;;;;2.80;1.10;;;25.80;96.00;;;;;;4997835;28;20449;-76
2023/08/04 09:22:56;;;;;;;2.93;1.50;;;25.80;95.60;;;;;;5009355;28;20468;-76
2023/08/04 09:25:24;;;;;;;2.33;1.70;;;26.30;95.20;;;;;;5003583;28;20531;-76
2023/08/04 09:27:51;;;;;;;3.23;1.40;;;26.50;94.20;;;;;;4994841;28;20488;-77
2023/08/04 09:30:19;;;;;;;2.13;1.07;;;26.20;94.10;;;;;;4994877;28;20527;-77
2023/08/04 09:32:47;;;;;;;1.60;0.80;;;26.70;94.40;;;;;;5005609;28;20502;-76
2023/08/04 09:35:14;;;;;;;1.13;0.70;;;27.60;92.50;;;;;;5002049;28;20483;-75
2023/08/04 09:37:42;;;;;;;1.37;0.87;;;27.90;91.30;;;;;;5001881;28;20514;-77
2023/08/04 09:40:14;;;;;;;1.50;1.00;;;28.20;90.40;;;;;;5003132;28;20480;-77
2023/08/04 09:42:45;;;;;;;2.17;0.90;;;27.80;90.60;;;;;;4997744;28;20460;-77
2023/08/04 09:45:17;;;;;;;1.53;0.87;;;27.90;89.60;;;;;;4997055;28;20452;-78
2023/08/04 09:47:48;;;;;;;2.40;0.90;;;27.70;90.00;;;;;;5004414;28;20487;-78
2023/08/04 09:50:15;;;;;;;3.47;1.00;;;28.10;90.20;;;;;;5003716;28;20448;-76
2023/08/04 09:52:43;;;;;;;1.47;0.80;;;27.90;89.70;;;;;;5003995;28;20487;-76
2023/08/04 09:55:10;;;;;;;2.53;1.07;;;27.90;89.90;;;;;;5002143;28;20441;-77
2023/08/04 09:57:37;;;;;;;1.40;0.80;;;27.80;90.00;;;;;;4995031;28;20452;-76
2023/08/04 10:00:08;;;;;;;2.60;1.10;;;27.60;90.00;;;;;;4993487;28;20465;-77
2023/08/04 10:02:36;;;;;;;2.93;1.00;;;27.00;90.50;;;;;;4997863;28;20451;-77
2023/08/04 10:05:04;;;;;;;4.40;1.33;;;26.50;91.10;;;;;;5007643;28;20543;-77
2023/08/04 10:07:32;;;;;;;2.70;1.07;;;26.10;91.90;;;;;;4998356;28;20492;-77
2023/08/04 10:10:00;;;;;;;3.03;1.57;;;25.60;92.10;;;;;;5007487;28;20445;-76
2023/08/04 10:12:29;;;;;;;2.70;1.40;;;25.50;92.90;;;;;;5007251;28;20502;-76
2023/08/04 10:14:57;;;;;;;1.93;1.03;;;25.30;92.70;;;;;;5006042;28;20458;-76
2023/08/04 10:17:26;;;;;;;1.50;0.93;;;25.00;93.40;;;;;;5007512;28;20866;-77
2023/08/04 10:20:06;;;;;;;2.63;1.37;;;25.10;93.50;;;;;;5005756;28;20448;-76
2023/08/04 10:22:33;;;;;;;1.50;1.07;;;25.30;93.40;;;;;;5000686;28;20951;-76
2023/08/04 10:25:01;;;;;;;3.80;1.17;;;25.40;92.80;;;;;;5003367;28;20444;-76
2023/08/04 10:27:29;;;;;;;2.90;1.07;;;25.40;91.70;;;;;;5001104;28;20990;-77
2023/08/04 10:30:04;;;;;;;2.30;1.13;;;25.70;91.70;;;;;;4999968;28;20453;-76
2023/08/04 10:32:40;;;;;;;4.03;2.33;;;25.70;91.40;;;;;;5005912;28;20448;-77
2023/08/04 10:35:08;;;;;;;2.50;1.30;;;26.10;91.70;;;;;;5013813;28;20435;-77
2023/08/04 10:37:48;;;;;;;3.30;1.40;;;26.40;91.90;;;;;;5001496;28;20453;-76
2023/08/04 10:40:29;;;;;;;1.90;1.00;;;27.20;90.60;;;;;;4997887;28;20464;-76
2023/08/04 10:43:02;;;;;;;2.20;1.67;;;27.20;90.60;;;;;;5008703;28;20560;-76
2023/08/04 10:46:02;;;;;;;2.03;1.00;;;26.80;91.00;;;;;;4997743;28;20483;-77
2023/08/04 10:48:36;;;;;;;1.30;0.90;;;26.50;91.60;;;;;;5000694;28;20519;-77
2023/08/04 10:51:03;;;;;;;4.83;1.57;;;26.40;92.00;;;;;;4985785;28;20522;-77
2023/08/04 10:53:30;;;;;;;2.80;1.20;;;26.40;91.90;;;;;;5013024;28;20554;-76
2023/08/04 10:55:58;;;;;;;5.10;1.30;;;26.20;92.20;;;;;;5009180;28;20535;-75
2023/08/04 10:58:28;;;;;;;2.33;1.30;;;26.20;91.90;;;;;;5006487;28;20440;-75
2023/08/04 11:00:56;;;;;;;3.77;1.67;;;26.40;92.40;;;;;;5002574;28;20452;-75
2023/08/04 11:03:24;;;;;;;4.40;1.47;;;26.50;91.80;;;;;;5008703;28;20503;-77
2023/08/04 11:05:54;;;;;;;3.37;1.47;;;26.40;91.70;;;;;;5003906;28;20539;-76
2023/08/04 11:08:22;;;;;;;2.93;1.67;;;26.50;91.80;;;;;;5007707;28;20523;-75
2023/08/04 11:10:50;;;;;;;4.50;1.23;;;26.70;91.80;;;;;;5005965;28;20514;-77
2023/08/04 11:13:19;;;;;;;9.23;2.10;;;26.60;91.50;;;;;;5009074;28;20487;-77
2023/08/04 11:15:47;;;;;;;3.50;1.60;;;25.90;91.80;;;;;;5012530;28;20444;-76
2023/08/04 11:18:15;;;;;;;3.80;1.47;;;25.20;92.90;;;;;;5012355;28;20502;-77
2023/08/04 11:20:42;;;;;;;3.77;1.30;;;25.40;93.50;;;;;;5014206;28;20451;-75
2023/08/04 11:23:11;;;;;;;1.87;1.23;;;25.60;93.40;;;;;;5009602;28;20510;-75
2023/08/04 11:25:40;;;;;;;5.90;1.93;;;25.60;93.50;;;;;;5002711;28;20522;-77
2023/08/04 11:28:08;;;;;;;4.90;1.70;;;25.20;93.90;;;;;;5002792;28;20490;-76
2023/08/04 11:30:36;;;;;;;2.37;1.30;;;24.90;94.40;;;;;;5001500;28;20441;-76
2023/08/04 11:33:07;;;;;;;2.50;1.50;;;24.40;95.10;;;;;;5002138;28;20500;-76
2023/08/04 11:35:34;;;;;;;5.37;1.47;;;24.30;96.00;;;;;;5006133;28;20523;-76
2023/08/04 11:38:03;;;;;;;1.87;1.30;;;24.60;96.10;;;;;;5001539;28;20518;-75
2023/08/04 11:40:34;;;;;;;3.70;1.50;;;24.90;94.70;;;;;;5002294;28;20950;-76
2023/08/04 11:43:01;;;;;;;2.33;1.23;;;25.10;94.20;;;;;;5004090;28;20495;-76
2023/08/04 11:45:32;;;;;;;3.20;1.90;;;25.10;94.40;;;;;;5000764;28;20498;-75
2023/08/04 11:47:59;;;;;;;2.10;1.63;;;25.00;94.20;;;;;;4999611;28;20576;-74
2023/08/04 11:50:26;;;;;;;3.00;1.30;;;24.80;94.00;;;;;;5000749;28;20458;-74
2023/08/04 11:52:54;;;;;;;2.53;1.50;;;24.40;94.30;;;;;;5010314;28;20535;-75
2023/08/04 11:55:21;;;;;;;2.70;1.40;;;24.40;95.70;;;;;;5008252;28;20886;-76
2023/08/04 11:57:51;;;;;;;2.37;1.37;;;24.60;95.60;;;;;;5003494;28;20918;-75
2023/08/04 12:00:33;;;;;;;1.90;1.03;;;24.70;94.90;;;;;;4995186;28;20449;-76
2023/08/04 12:03:02;;;;;;;1.90;1.10;;;24.80;93.70;;;;;;5010146;28;20544;-76
2023/08/04 12:05:30;;;;;;;1.87;1.20;;;24.90;93.60;;;;;;5000031;28;20534;-76
2023/08/04 12:07:58;;;;;;;7.03;3.60;;;24.90;93.10;;;;;;5006359;28;20852;-76
2023/08/04 12:10:25;;;;;;;2.63;1.10;;;25.20;92.40;;;;;;5006099;28;20562;-76
2023/08/04 12:12:53;;;;;;;3.40;1.80;;;25.50;92.30;;;;;;5002210;28;20893;-76
2023/08/04 12:15:20;;;;;;;3.13;2.10;;;25.50;92.60;;;;;;5001263;28;20490;-76
2023/08/04 12:17:47;;;;;;;4.10;1.43;;;25.60;93.10;;;;;;5003806;28;20456;-77
2023/08/04 12:20:15;;;;;;;4.30;1.40;;;25.30;93.00;;;;;;5003665;28;20483;-76
2023/08/04 12:22:43;;;;;;;2.80;1.53;;;25.10;93.80;;;;;;5008149;28;20797;-76
2023/08/04 12:25:11;;;;;;;3.43;1.50;;;25.10;93.90;;;;;;5003731;28;20935;-76
2023/08/04 12:27:38;;;;;;;2.23;1.30;;;25.10;93.90;;;;;;5007839;28;20492;-74
2023/08/04 12:30:08;;;;;;;3.80;1.40;;;25.30;94.20;;;;;;5003963;28;20918;-74
2023/08/04 12:32:35;;;;;;;4.23;1.63;;;25.30;93.80;;;;;;4999369;28;20447;-75
2023/08/04 12:35:02;;;;;;;3.00;1.90;;;25.30;93.60;;;;;;4996216;28;20552;-76
2023/08/04 12:37:29;;;;;;;4.13;2.20;;;25.30;93.90;;;;;;5008836;28;20526;-76
2023/08/04 12:39:56;;;;;;;3.50;1.50;;;25.30;93.70;;;;;;4993958;28;20501;-75
2023/08/04 12:42:23;;;;;;;2.60;1.00;;;25.20;94.10;;;;;;5003387;28;20482;-75
2023/08/04 12:44:50;;;;;;;3.97;1.40;;;24.80;94.40;;;;;;4997497;28;20460;-76
2023/08/04 12:47:18;;;;;;;3.70;1.53;;;24.50;94.60;;;;;;4993858;28;20453;-75
2023/08/04 12:49:45;;;;;;;4.33;1.70;;;24.30;95.00;;;;;;4997163;28;20912;-76